sensor_id;sensor_type;location;lat;lon;timestamp;temperature;humidity
5607;DHT22;2825;53.116;9.392;2022-08-19T00:00:27;19.80;99.90
5607;DHT22;2825;53.116;9.392;2022-08-19T00:02:53;19.80;99.90
5607;DHT22;2825;53.116;9.392;2022-08-19T00:05:21;19.80;99.90
5607;DHT22;2825;53.116;9.392;2022-08-19T00:07:47;19.80;99.90
5607;DHT22;2825;53.116;9.392;2022-08-19T00:10:15;19.80;99.90
5607;DHT22;2825;53.116;9.392;2022-08-19T00:12:41;19.80;99.90
5607;DHT22;2825;53.116;9.392;2022-08-19T00:15:10;19.80;99.90
5607;DHT22;2825;53.116;9.392;2022-08-19T00:17:41;19.70;99.90
5607;DHT22;2825;53.116;9.392;2022-08-19T00:20:12;19.80;99.90
5607;DHT22;2825;53.116;9.392;2022-08-19T00:22:38;19.80;99.90
5607;DHT22;2825;53.116;9.392;2022-08-19T00:25:07;19.80;99.90
5607;DHT22;2825;53.116;9.392;2022-08-19T00:27:33;19.70;99.90
5607;DHT22;2825;53.116;9.392;2022-08-19T00:29:59;19.80;99.90
5607;DHT22;2825;53.116;9.392;2022-08-19T00:32:25;19.70;99.90
5607;DHT22;2825;53.116;9.392;2022-08-19T00:34:51;19.70;99.90
5607;DHT22;2825;53.116;9.392;2022-08-19T00:37:22;19.70;99.90
5607;DHT22;2825;53.116;9.392;2022-08-19T00:39:48;19.70;99.90
5607;DHT22;2825;53.116;9.392;2022-08-19T00:42:14;19.60;99.90
5607;DHT22;2825;53.116;9.392;2022-08-19T00:44:41;19.60;99.90
5607;DHT22;2825;53.116;9.392;2022-08-19T00:47:06;19.60;99.90
5607;DHT22;2825;53.116;9.392;2022-08-19T00:49:36;19.60;99.90
5607;DHT22;2825;53.116;9.392;2022-08-19T00:52:12;19.50;99.90
5607;DHT22;2825;53.116;9.392;2022-08-19T00:54:40;19.50;99.90
5607;DHT22;2825;53.116;9.392;2022-08-19T00:57:10;19.50;99.90
5607;DHT22;2825;53.116;9.392;2022-08-19T00:59:40;19.50;99.90
5607;DHT22;2825;53.116;9.392;2022-08-19T01:02:06;19.50;99.90
5607;DHT22;2825;53.116;9.392;2022-08-19T01:04:32;19.50;99.90
5607;DHT22;2825;53.116;9.392;2022-08-19T01:06:58;19.50;99.90
5607;DHT22;2825;53.116;9.392;2022-08-19T01:09:24;19.50;99.90
5607;DHT22;2825;53.116;9.392;2022-08-19T01:11:50;19.40;99.90
5607;DHT22;2825;53.116;9.392;2022-08-19T01:14:17;19.40;99.90
5607;DHT22;2825;53.116;9.392;2022-08-19T01:16:45;19.40;99.90
5607;DHT22;2825;53.116;9.392;2022-08-19T01:19:28;19.30;99.90
5607;DHT22;2825;53.116;9.392;2022-08-19T01:25:01;19.30;99.90
5607;DHT22;2825;53.116;9.392;2022-08-19T01:27:37;19.30;99.90
5607;DHT22;2825;53.116;9.392;2022-08-19T01:30:04;19.30;99.90
5607;DHT22;2825;53.116;9.392;2022-08-19T01:32:31;19.30;99.90
5607;DHT22;2825;53.116;9.392;2022-08-19T01:34:57;19.30;99.90
5607;DHT22;2825;53.116;9.392;2022-08-19T01:37:23;19.30;99.90
5607;DHT22;2825;53.116;9.392;2022-08-19T01:39:49;19.30;99.90
5607;DHT22;2825;53.116;9.392;2022-08-19T01:42:15;19.30;99.90
5607;DHT22;2825;53.116;9.392;2022-08-19T01:44:41;19.30;99.90
5607;DHT22;2825;53.116;9.392;2022-08-19T01:47:07;19.20;99.90
5607;DHT22;2825;53.116;9.392;2022-08-19T01:49:35;19.20;99.90
5607;DHT22;2825;53.116;9.392;2022-08-19T01:52:01;19.20;99.90
5607;DHT22;2825;53.116;9.392;2022-08-19T01:54:27;19.20;99.90
5607;DHT22;2825;53.116;9.392;2022-08-19T01:56:56;19.20;99.90
5607;DHT22;2825;53.116;9.392;2022-08-19T01:59:24;19.10;99.90
5607;DHT22;2825;53.116;9.392;2022-08-19T02:01:49;19.10;99.90
5607;DHT22;2825;53.116;9.392;2022-08-19T02:04:15;19.10;99.90
5607;DHT22;2825;53.116;9.392;2022-08-19T02:06:41;19.10;99.90
5607;DHT22;2825;53.116;9.392;2022-08-19T02:09:07;19.10;99.90
5607;DHT22;2825;53.116;9.392;2022-08-19T02:11:36;19.10;99.90
5607;DHT22;2825;53.116;9.392;2022-08-19T02:14:04;19.10;99.90
5607;DHT22;2825;53.116;9.392;2022-08-19T02:16:30;19.10;99.90
5607;DHT22;2825;53.116;9.392;2022-08-19T02:18:56;19.00;99.90
5607;DHT22;2825;53.116;9.392;2022-08-19T02:21:23;19.00;99.90
5607;DHT22;2825;53.116;9.392;2022-08-19T02:23:49;19.00;99.90
5607;DHT22;2825;53.116;9.392;2022-08-19T02:26:16;19.00;99.90
5607;DHT22;2825;53.116;9.392;2022-08-19T02:28:42;19.00;99.90
5607;DHT22;2825;53.116;9.392;2022-08-19T02:31:19;19.00;99.90
5607;DHT22;2825;53.116;9.392;2022-08-19T02:33:46;18.90;99.90
5607;DHT22;2825;53.116;9.392;2022-08-19T02:36:13;18.90;99.90
5607;DHT22;2825;53.116;9.392;2022-08-19T02:38:40;18.90;99.90
5607;DHT22;2825;53.116;9.392;2022-08-19T02:41:18;19.00;99.90
5607;DHT22;2825;53.116;9.392;2022-08-19T02:43:44;18.90;99.90
5607;DHT22;2825;53.116;9.392;2022-08-19T02:46:23;19.00;99.90
5607;DHT22;2825;53.116;9.392;2022-08-19T02:48:54;18.90;99.90
5607;DHT22;2825;53.116;9.392;2022-08-19T02:51:27;19.00;99.90
5607;DHT22;2825;53.116;9.392;2022-08-19T02:53:53;18.90;99.90
5607;DHT22;2825;53.116;9.392;2022-08-19T02:56:20;18.90;99.90
5607;DHT22;2825;53.116;9.392;2022-08-19T02:58:46;18.90;99.90
5607;DHT22;2825;53.116;9.392;2022-08-19T03:01:24;18.90;99.90
5607;DHT22;2825;53.116;9.392;2022-08-19T03:03:50;18.90;99.90
5607;DHT22;2825;53.116;9.392;2022-08-19T03:06:17;18.90;99.90
5607;DHT22;2825;53.116;9.392;2022-08-19T03:08:44;18.90;99.90
5607;DHT22;2825;53.116;9.392;2022-08-19T03:11:21;18.90;99.90
5607;DHT22;2825;53.116;9.392;2022-08-19T03:13:47;18.90;99.90
5607;DHT22;2825;53.116;9.392;2022-08-19T03:16:15;18.90;99.90
5607;DHT22;2825;53.116;9.392;2022-08-19T03:18:41;18.90;99.90
5607;DHT22;2825;53.116;9.392;2022-08-19T03:21:07;18.80;99.90
5607;DHT22;2825;53.116;9.392;2022-08-19T03:23:34;18.90;99.90
5607;DHT22;2825;53.116;9.392;2022-08-19T03:26:04;18.90;99.90
5607;DHT22;2825;53.116;9.392;2022-08-19T03:28:30;18.90;99.90
5607;DHT22;2825;53.116;9.392;2022-08-19T03:31:07;18.90;99.90
5607;DHT22;2825;53.116;9.392;2022-08-19T03:33:34;18.90;99.90
5607;DHT22;2825;53.116;9.392;2022-08-19T03:36:26;18.80;99.90
5607;DHT22;2825;53.116;9.392;2022-08-19T03:38:55;18.90;99.90
5607;DHT22;2825;53.116;9.392;2022-08-19T03:41:24;18.80;99.90
5607;DHT22;2825;53.116;9.392;2022-08-19T03:43:51;18.80;99.90
5607;DHT22;2825;53.116;9.392;2022-08-19T03:46:23;18.80;99.90
5607;DHT22;2825;53.116;9.392;2022-08-19T03:48:51;18.80;99.90
5607;DHT22;2825;53.116;9.392;2022-08-19T03:53:47;18.80;99.90
5607;DHT22;2825;53.116;9.392;2022-08-19T03:56:13;18.80;99.90
5607;DHT22;2825;53.116;9.392;2022-08-19T03:58:40;18.80;99.90
5607;DHT22;2825;53.116;9.392;2022-08-19T04:01:15;18.80;99.90
5607;DHT22;2825;53.116;9.392;2022-08-19T04:03:41;18.90;99.90
5607;DHT22;2825;53.116;9.392;2022-08-19T04:06:12;18.90;99.90
5607;DHT22;2825;53.116;9.392;2022-08-19T04:08:40;18.90;99.90
5607;DHT22;2825;53.116;9.392;2022-08-19T04:11:11;18.90;99.90
5607;DHT22;2825;53.116;9.392;2022-08-19T04:13:37;18.90;99.90
5607;DHT22;2825;53.116;9.392;2022-08-19T04:16:04;18.80;99.90
5607;DHT22;2825;53.116;9.392;2022-08-19T04:18:31;18.80;99.90
5607;DHT22;2825;53.116;9.392;2022-08-19T04:20:59;18.80;99.90
5607;DHT22;2825;53.116;9.392;2022-08-19T04:23:24;18.80;99.90
5607;DHT22;2825;53.116;9.392;2022-08-19T04:25:50;18.70;99.90
5607;DHT22;2825;53.116;9.392;2022-08-19T04:28:16;18.70;99.90
5607;DHT22;2825;53.116;9.392;2022-08-19T04:30:50;18.70;99.90
5607;DHT22;2825;53.116;9.392;2022-08-19T04:33:18;18.70;99.90
5607;DHT22;2825;53.116;9.392;2022-08-19T04:35:47;18.70;99.90
5607;DHT22;2825;53.116;9.392;2022-08-19T04:38:18;18.60;99.90
5607;DHT22;2825;53.116;9.392;2022-08-19T04:40:47;18.60;99.90
5607;DHT22;2825;53.116;9.392;2022-08-19T04:43:32;18.60;99.90
5607;DHT22;2825;53.116;9.392;2022-08-19T04:46:08;18.60;99.90
5607;DHT22;2825;53.116;9.392;2022-08-19T04:48:35;18.60;99.90
5607;DHT22;2825;53.116;9.392;2022-08-19T04:51:01;18.60;99.90
5607;DHT22;2825;53.116;9.392;2022-08-19T04:53:33;18.60;99.90
5607;DHT22;2825;53.116;9.392;2022-08-19T04:56:03;18.60;99.90
5607;DHT22;2825;53.116;9.392;2022-08-19T04:58:29;18.60;99.90
5607;DHT22;2825;53.116;9.392;2022-08-19T05:00:55;18.60;99.90
5607;DHT22;2825;53.116;9.392;2022-08-19T05:03:21;18.70;99.90
5607;DHT22;2825;53.116;9.392;2022-08-19T05:05:47;18.70;99.90
5607;DHT22;2825;53.116;9.392;2022-08-19T05:08:16;18.70;99.90
5607;DHT22;2825;53.116;9.392;2022-08-19T05:10:46;18.70;99.90
5607;DHT22;2825;53.116;9.392;2022-08-19T05:13:13;18.70;99.90
5607;DHT22;2825;53.116;9.392;2022-08-19T05:15:40;18.70;99.90
5607;DHT22;2825;53.116;9.392;2022-08-19T05:18:05;18.70;99.90
5607;DHT22;2825;53.116;9.392;2022-08-19T05:20:49;18.80;99.90
5607;DHT22;2825;53.116;9.392;2022-08-19T05:23:33;18.80;99.90
5607;DHT22;2825;53.116;9.392;2022-08-19T05:25:59;18.70;99.90
5607;DHT22;2825;53.116;9.392;2022-08-19T05:28:25;18.70;99.90
5607;DHT22;2825;53.116;9.392;2022-08-19T05:30:51;18.70;99.90
5607;DHT22;2825;53.116;9.392;2022-08-19T05:33:17;18.70;99.90
5607;DHT22;2825;53.116;9.392;2022-08-19T05:35:43;18.70;99.90
5607;DHT22;2825;53.116;9.392;2022-08-19T05:38:09;18.60;99.90
5607;DHT22;2825;53.116;9.392;2022-08-19T05:40:37;18.60;99.90
5607;DHT22;2825;53.116;9.392;2022-08-19T05:43:05;18.70;99.90
5607;DHT22;2825;53.116;9.392;2022-08-19T05:45:31;18.70;99.90
5607;DHT22;2825;53.116;9.392;2022-08-19T05:47:57;18.80;99.90
5607;DHT22;2825;53.116;9.392;2022-08-19T05:50:24;18.80;99.90
5607;DHT22;2825;53.116;9.392;2022-08-19T05:52:52;18.80;99.90
5607;DHT22;2825;53.116;9.392;2022-08-19T05:55:17;18.80;99.90
5607;DHT22;2825;53.116;9.392;2022-08-19T05:57:46;18.80;99.90
5607;DHT22;2825;53.116;9.392;2022-08-19T06:00:12;18.80;99.90
5607;DHT22;2825;53.116;9.392;2022-08-19T06:02:39;18.80;99.90
5607;DHT22;2825;53.116;9.392;2022-08-19T06:05:06;18.80;99.90
5607;DHT22;2825;53.116;9.392;2022-08-19T06:07:35;18.80;99.90
5607;DHT22;2825;53.116;9.392;2022-08-19T06:10:02;18.80;99.90
5607;DHT22;2825;53.116;9.392;2022-08-19T06:12:29;18.90;99.90
5607;DHT22;2825;53.116;9.392;2022-08-19T06:14:59;18.90;99.90
5607;DHT22;2825;53.116;9.392;2022-08-19T06:17:25;18.90;99.90
5607;DHT22;2825;53.116;9.392;2022-08-19T06:19:51;18.90;99.90
5607;DHT22;2825;53.116;9.392;2022-08-19T06:22:17;18.90;99.90
5607;DHT22;2825;53.116;9.392;2022-08-19T06:24:43;18.80;99.90
5607;DHT22;2825;53.116;9.392;2022-08-19T06:27:10;18.80;99.90
5607;DHT22;2825;53.116;9.392;2022-08-19T06:29:36;18.80;99.90
5607;DHT22;2825;53.116;9.392;2022-08-19T06:32:03;18.80;99.90
5607;DHT22;2825;53.116;9.392;2022-08-19T06:34:33;18.80;99.90
5607;DHT22;2825;53.116;9.392;2022-08-19T06:37:00;18.80;99.90
5607;DHT22;2825;53.116;9.392;2022-08-19T06:39:29;18.80;99.90
5607;DHT22;2825;53.116;9.392;2022-08-19T06:41:57;18.80;99.90
5607;DHT22;2825;53.116;9.392;2022-08-19T06:44:26;18.80;99.90
5607;DHT22;2825;53.116;9.392;2022-08-19T06:46:53;18.80;99.90
5607;DHT22;2825;53.116;9.392;2022-08-19T06:49:19;18.80;99.90
5607;DHT22;2825;53.116;9.392;2022-08-19T06:51:47;18.80;99.90
5607;DHT22;2825;53.116;9.392;2022-08-19T06:54:14;18.80;99.90
5607;DHT22;2825;53.116;9.392;2022-08-19T06:56:41;18.80;99.90
5607;DHT22;2825;53.116;9.392;2022-08-19T06:59:14;18.80;99.90
5607;DHT22;2825;53.116;9.392;2022-08-19T07:01:49;18.90;99.90
5607;DHT22;2825;53.116;9.392;2022-08-19T07:04:17;18.90;99.90
5607;DHT22;2825;53.116;9.392;2022-08-19T07:06:44;18.90;99.90
5607;DHT22;2825;53.116;9.392;2022-08-19T07:09:14;18.90;99.90
5607;DHT22;2825;53.116;9.392;2022-08-19T07:11:48;18.90;99.90
5607;DHT22;2825;53.116;9.392;2022-08-19T07:14:17;18.90;99.90
5607;DHT22;2825;53.116;9.392;2022-08-19T07:16:44;18.90;99.90
5607;DHT22;2825;53.116;9.392;2022-08-19T07:19:12;19.00;99.90
5607;DHT22;2825;53.116;9.392;2022-08-19T07:21:38;19.00;99.90
5607;DHT22;2825;53.116;9.392;2022-08-19T07:24:04;19.00;99.90
5607;DHT22;2825;53.116;9.392;2022-08-19T07:26:32;19.00;99.90
5607;DHT22;2825;53.116;9.392;2022-08-19T07:28:59;19.10;99.90
5607;DHT22;2825;53.116;9.392;2022-08-19T07:31:28;19.00;99.90
5607;DHT22;2825;53.116;9.392;2022-08-19T07:33:55;19.10;99.90
5607;DHT22;2825;53.116;9.392;2022-08-19T07:36:26;19.10;99.90
5607;DHT22;2825;53.116;9.392;2022-08-19T07:38:59;19.20;99.90
5607;DHT22;2825;53.116;9.392;2022-08-19T07:41:26;19.20;99.90
5607;DHT22;2825;53.116;9.392;2022-08-19T07:43:54;19.20;99.90
5607;DHT22;2825;53.116;9.392;2022-08-19T07:46:20;19.30;99.90
5607;DHT22;2825;53.116;9.392;2022-08-19T07:48:48;19.40;99.90
5607;DHT22;2825;53.116;9.392;2022-08-19T07:51:18;19.40;99.90
5607;DHT22;2825;53.116;9.392;2022-08-19T07:53:45;19.40;99.90
5607;DHT22;2825;53.116;9.392;2022-08-19T07:56:13;19.50;99.90
5607;DHT22;2825;53.116;9.392;2022-08-19T07:58:41;19.50;99.90
5607;DHT22;2825;53.116;9.392;2022-08-19T08:01:10;19.50;99.90
5607;DHT22;2825;53.116;9.392;2022-08-19T08:03:37;19.60;99.90
5607;DHT22;2825;53.116;9.392;2022-08-19T08:06:22;19.70;99.90
5607;DHT22;2825;53.116;9.392;2022-08-19T08:09:06;19.70;99.90
5607;DHT22;2825;53.116;9.392;2022-08-19T08:12:29;19.70;99.90
5607;DHT22;2825;53.116;9.392;2022-08-19T08:14:47;19.70;99.90
5607;DHT22;2825;53.116;9.392;2022-08-19T08:17:15;19.60;99.90
5607;DHT22;2825;53.116;9.392;2022-08-19T08:19:42;19.60;99.90
5607;DHT22;2825;53.116;9.392;2022-08-19T08:22:09;19.60;99.90
5607;DHT22;2825;53.116;9.392;2022-08-19T08:24:55;19.50;99.90
5607;DHT22;2825;53.116;9.392;2022-08-19T08:27:24;19.50;99.90
5607;DHT22;2825;53.116;9.392;2022-08-19T08:29:49;19.60;99.90
5607;DHT22;2825;53.116;9.392;2022-08-19T08:32:15;19.60;99.90
5607;DHT22;2825;53.116;9.392;2022-08-19T08:34:41;19.60;99.90
5607;DHT22;2825;53.116;9.392;2022-08-19T08:37:07;19.60;99.90
5607;DHT22;2825;53.116;9.392;2022-08-19T08:39:33;19.60;99.90
5607;DHT22;2825;53.116;9.392;2022-08-19T08:45:00;19.70;99.90
5607;DHT22;2825;53.116;9.392;2022-08-19T08:47:40;19.70;99.90
5607;DHT22;2825;53.116;9.392;2022-08-19T08:50:15;19.80;99.90
5607;DHT22;2825;53.116;9.392;2022-08-19T08:52:47;19.80;99.90
5607;DHT22;2825;53.116;9.392;2022-08-19T08:55:16;19.90;99.90
5607;DHT22;2825;53.116;9.392;2022-08-19T08:57:52;20.00;99.90
5607;DHT22;2825;53.116;9.392;2022-08-19T09:00:24;20.10;99.90
5607;DHT22;2825;53.116;9.392;2022-08-19T09:02:52;20.20;99.90
5607;DHT22;2825;53.116;9.392;2022-08-19T09:05:19;20.30;99.90
5607;DHT22;2825;53.116;9.392;2022-08-19T09:10:22;20.50;99.90
5607;DHT22;2825;53.116;9.392;2022-08-19T09:15:42;20.60;99.90
5607;DHT22;2825;53.116;9.392;2022-08-19T09:18:09;20.60;99.90
5607;DHT22;2825;53.116;9.392;2022-08-19T09:20:35;20.70;99.90
5607;DHT22;2825;53.116;9.392;2022-08-19T09:23:01;20.70;99.90
5607;DHT22;2825;53.116;9.392;2022-08-19T09:25:27;20.80;99.90
5607;DHT22;2825;53.116;9.392;2022-08-19T09:27:53;20.80;99.90
5607;DHT22;2825;53.116;9.392;2022-08-19T09:30:26;20.90;99.90
5607;DHT22;2825;53.116;9.392;2022-08-19T09:32:52;20.90;99.90
5607;DHT22;2825;53.116;9.392;2022-08-19T09:35:19;21.00;99.90
5607;DHT22;2825;53.116;9.392;2022-08-19T09:37:48;21.10;99.90
5607;DHT22;2825;53.116;9.392;2022-08-19T09:40:15;21.10;99.90
5607;DHT22;2825;53.116;9.392;2022-08-19T09:42:41;21.20;99.90
5607;DHT22;2825;53.116;9.392;2022-08-19T09:45:09;21.30;99.90
5607;DHT22;2825;53.116;9.392;2022-08-19T09:47:35;21.30;99.90
5607;DHT22;2825;53.116;9.392;2022-08-19T09:50:04;21.30;99.90
5607;DHT22;2825;53.116;9.392;2022-08-19T09:52:31;21.40;99.90
5607;DHT22;2825;53.116;9.392;2022-08-19T09:54:56;21.40;99.90
5607;DHT22;2825;53.116;9.392;2022-08-19T09:57:22;21.50;99.90
5607;DHT22;2825;53.116;9.392;2022-08-19T09:59:48;21.60;99.90
5607;DHT22;2825;53.116;9.392;2022-08-19T10:02:13;21.60;99.90
5607;DHT22;2825;53.116;9.392;2022-08-19T10:04:39;21.60;99.90
5607;DHT22;2825;53.116;9.392;2022-08-19T10:07:23;21.60;99.90
5607;DHT22;2825;53.116;9.392;2022-08-19T10:09:50;21.70;99.90
5607;DHT22;2825;53.116;9.392;2022-08-19T10:12:15;21.80;99.90
5607;DHT22;2825;53.116;9.392;2022-08-19T10:14:41;22.00;99.90
5607;DHT22;2825;53.116;9.392;2022-08-19T10:17:07;22.20;99.90
5607;DHT22;2825;53.116;9.392;2022-08-19T10:19:33;22.40;99.90
5607;DHT22;2825;53.116;9.392;2022-08-19T10:22:05;22.50;99.90
5607;DHT22;2825;53.116;9.392;2022-08-19T10:24:32;22.70;99.90
5607;DHT22;2825;53.116;9.392;2022-08-19T10:27:00;22.80;99.90
5607;DHT22;2825;53.116;9.392;2022-08-19T10:29:29;22.80;99.90
5607;DHT22;2825;53.116;9.392;2022-08-19T10:31:55;22.90;99.90
5607;DHT22;2825;53.116;9.392;2022-08-19T10:34:23;23.00;99.90
5607;DHT22;2825;53.116;9.392;2022-08-19T10:36:48;22.90;99.90
5607;DHT22;2825;53.116;9.392;2022-08-19T10:39:15;23.00;99.90
5607;DHT22;2825;53.116;9.392;2022-08-19T10:41:40;23.00;99.90
5607;DHT22;2825;53.116;9.392;2022-08-19T10:44:11;23.10;99.90
5607;DHT22;2825;53.116;9.392;2022-08-19T10:46:40;23.20;99.90
5607;DHT22;2825;53.116;9.392;2022-08-19T10:49:08;23.20;99.90
5607;DHT22;2825;53.116;9.392;2022-08-19T10:51:35;23.20;99.90
5607;DHT22;2825;53.116;9.392;2022-08-19T10:54:20;23.20;99.90
5607;DHT22;2825;53.116;9.392;2022-08-19T10:56:45;23.30;99.90
5607;DHT22;2825;53.116;9.392;2022-08-19T10:59:22;23.40;99.90
5607;DHT22;2825;53.116;9.392;2022-08-19T11:01:50;23.50;99.90
5607;DHT22;2825;53.116;9.392;2022-08-19T11:04:17;23.70;99.90
5607;DHT22;2825;53.116;9.392;2022-08-19T11:06:45;23.80;99.90
5607;DHT22;2825;53.116;9.392;2022-08-19T11:09:16;23.90;99.90
5607;DHT22;2825;53.116;9.392;2022-08-19T11:11:43;24.00;99.90
5607;DHT22;2825;53.116;9.392;2022-08-19T11:14:11;24.10;99.90
5607;DHT22;2825;53.116;9.392;2022-08-19T11:16:37;24.20;99.90
5607;DHT22;2825;53.116;9.392;2022-08-19T11:19:08;24.30;99.90
5607;DHT22;2825;53.116;9.392;2022-08-19T11:21:38;24.30;99.90
5607;DHT22;2825;53.116;9.392;2022-08-19T11:24:09;24.30;99.90
5607;DHT22;2825;53.116;9.392;2022-08-19T11:26:36;24.20;99.90
5607;DHT22;2825;53.116;9.392;2022-08-19T11:29:03;24.30;99.90
5607;DHT22;2825;53.116;9.392;2022-08-19T11:31:32;24.50;99.90
5607;DHT22;2825;53.116;9.392;2022-08-19T11:33:59;24.50;99.90
5607;DHT22;2825;53.116;9.392;2022-08-19T11:36:27;24.60;99.90
5607;DHT22;2825;53.116;9.392;2022-08-19T11:38:53;24.80;99.90
5607;DHT22;2825;53.116;9.392;2022-08-19T11:41:21;24.90;99.90
5607;DHT22;2825;53.116;9.392;2022-08-19T11:43:48;24.90;99.90
5607;DHT22;2825;53.116;9.392;2022-08-19T11:46:16;24.90;99.90
5607;DHT22;2825;53.116;9.392;2022-08-19T11:48:42;24.80;99.90
5607;DHT22;2825;53.116;9.392;2022-08-19T11:51:14;24.70;99.90
5607;DHT22;2825;53.116;9.392;2022-08-19T11:53:41;24.80;99.90
5607;DHT22;2825;53.116;9.392;2022-08-19T11:56:09;25.00;99.90
5607;DHT22;2825;53.116;9.392;2022-08-19T11:58:35;25.10;99.90
5607;DHT22;2825;53.116;9.392;2022-08-19T12:01:04;25.20;99.90
5607;DHT22;2825;53.116;9.392;2022-08-19T12:03:30;25.30;99.90
5607;DHT22;2825;53.116;9.392;2022-08-19T12:05:56;25.30;99.90
5607;DHT22;2825;53.116;9.392;2022-08-19T12:08:22;25.30;99.90
5607;DHT22;2825;53.116;9.392;2022-08-19T12:10:48;25.40;99.90
5607;DHT22;2825;53.116;9.392;2022-08-19T12:13:14;25.50;99.90
5607;DHT22;2825;53.116;9.392;2022-08-19T12:15:44;25.70;99.90
5607;DHT22;2825;53.116;9.392;2022-08-19T12:18:11;25.80;99.90
5607;DHT22;2825;53.116;9.392;2022-08-19T12:20:42;25.80;99.90
5607;DHT22;2825;53.116;9.392;2022-08-19T12:23:09;25.80;99.90
5607;DHT22;2825;53.116;9.392;2022-08-19T12:25:36;25.70;99.90
5607;DHT22;2825;53.116;9.392;2022-08-19T12:28:02;25.80;99.90
5607;DHT22;2825;53.116;9.392;2022-08-19T12:30:29;25.90;99.90
5607;DHT22;2825;53.116;9.392;2022-08-19T12:32:54;25.80;99.90
5607;DHT22;2825;53.116;9.392;2022-08-19T12:35:20;25.70;99.90
5607;DHT22;2825;53.116;9.392;2022-08-19T12:37:47;25.80;99.90
5607;DHT22;2825;53.116;9.392;2022-08-19T12:40:15;26.00;99.90
5607;DHT22;2825;53.116;9.392;2022-08-19T12:42:41;26.00;99.90
5607;DHT22;2825;53.116;9.392;2022-08-19T12:45:12;26.10;99.90
5607;DHT22;2825;53.116;9.392;2022-08-19T12:47:38;26.20;99.90
5607;DHT22;2825;53.116;9.392;2022-08-19T12:50:05;26.20;99.90
5607;DHT22;2825;53.116;9.392;2022-08-19T12:52:35;26.20;99.90
5607;DHT22;2825;53.116;9.392;2022-08-19T12:55:04;26.30;99.90
5607;DHT22;2825;53.116;9.392;2022-08-19T12:57:30;26.40;99.90
5607;DHT22;2825;53.116;9.392;2022-08-19T12:59:59;26.60;99.90
5607;DHT22;2825;53.116;9.392;2022-08-19T13:02:25;26.70;99.90
5607;DHT22;2825;53.116;9.392;2022-08-19T13:04:51;26.70;99.90
5607;DHT22;2825;53.116;9.392;2022-08-19T13:07:17;26.70;99.90
5607;DHT22;2825;53.116;9.392;2022-08-19T13:09:43;26.80;99.90
5607;DHT22;2825;53.116;9.392;2022-08-19T13:12:09;26.90;99.90
5607;DHT22;2825;53.116;9.392;2022-08-19T13:14:38;27.00;99.90
5607;DHT22;2825;53.116;9.392;2022-08-19T13:17:05;27.10;99.90
5607;DHT22;2825;53.116;9.392;2022-08-19T13:19:31;27.10;99.90
5607;DHT22;2825;53.116;9.392;2022-08-19T13:21:57;27.20;99.90
5607;DHT22;2825;53.116;9.392;2022-08-19T13:24:23;27.20;99.90
5607;DHT22;2825;53.116;9.392;2022-08-19T13:26:49;27.40;99.90
5607;DHT22;2825;53.116;9.392;2022-08-19T13:29:14;27.40;99.90
5607;DHT22;2825;53.116;9.392;2022-08-19T13:31:58;27.50;99.90
5607;DHT22;2825;53.116;9.392;2022-08-19T13:34:42;27.70;99.90
5607;DHT22;2825;53.116;9.392;2022-08-19T13:37:08;27.80;99.90
5607;DHT22;2825;53.116;9.392;2022-08-19T13:39:34;27.80;99.90
5607;DHT22;2825;53.116;9.392;2022-08-19T13:42:01;27.90;99.90
5607;DHT22;2825;53.116;9.392;2022-08-19T13:44:28;28.10;99.90
5607;DHT22;2825;53.116;9.392;2022-08-19T13:47:02;28.00;99.90
5607;DHT22;2825;53.116;9.392;2022-08-19T13:49:31;27.90;99.90
5607;DHT22;2825;53.116;9.392;2022-08-19T13:51:57;27.80;99.90
5607;DHT22;2825;53.116;9.392;2022-08-19T13:54:23;27.80;99.90
5607;DHT22;2825;53.116;9.392;2022-08-19T13:56:48;27.90;99.90
5607;DHT22;2825;53.116;9.392;2022-08-19T13:59:15;28.00;99.90
5607;DHT22;2825;53.116;9.392;2022-08-19T14:01:41;28.10;99.90
5607;DHT22;2825;53.116;9.392;2022-08-19T14:04:07;28.20;99.90
5607;DHT22;2825;53.116;9.392;2022-08-19T14:06:34;28.40;99.90
5607;DHT22;2825;53.116;9.392;2022-08-19T14:09:00;28.40;99.90
5607;DHT22;2825;53.116;9.392;2022-08-19T14:11:27;28.50;99.90
5607;DHT22;2825;53.116;9.392;2022-08-19T14:13:53;28.50;99.90
5607;DHT22;2825;53.116;9.392;2022-08-19T14:16:19;28.50;99.90
5607;DHT22;2825;53.116;9.392;2022-08-19T14:18:44;28.40;99.90
5607;DHT22;2825;53.116;9.392;2022-08-19T14:21:19;28.40;99.90
5607;DHT22;2825;53.116;9.392;2022-08-19T14:23:46;28.20;99.90
5607;DHT22;2825;53.116;9.392;2022-08-19T14:26:15;28.10;99.90
5607;DHT22;2825;53.116;9.392;2022-08-19T14:28:42;28.10;99.90
5607;DHT22;2825;53.116;9.392;2022-08-19T14:31:13;28.10;99.90
5607;DHT22;2825;53.116;9.392;2022-08-19T14:33:41;28.20;99.90
5607;DHT22;2825;53.116;9.392;2022-08-19T14:36:08;28.30;99.90
5607;DHT22;2825;53.116;9.392;2022-08-19T14:38:34;28.40;99.90
5607;DHT22;2825;53.116;9.392;2022-08-19T14:41:26;28.60;99.90
5607;DHT22;2825;53.116;9.392;2022-08-19T14:43:53;28.70;99.90
5607;DHT22;2825;53.116;9.392;2022-08-19T14:46:24;28.80;99.90
5607;DHT22;2825;53.116;9.392;2022-08-19T14:48:51;28.80;99.90
5607;DHT22;2825;53.116;9.392;2022-08-19T14:51:18;28.90;99.90
5607;DHT22;2825;53.116;9.392;2022-08-19T14:53:44;28.60;99.90
5607;DHT22;2825;53.116;9.392;2022-08-19T14:56:15;28.60;99.90
5607;DHT22;2825;53.116;9.392;2022-08-19T14:58:42;28.50;99.90
5607;DHT22;2825;53.116;9.392;2022-08-19T15:01:08;28.40;99.90
5607;DHT22;2825;53.116;9.392;2022-08-19T15:03:34;28.50;99.90
5607;DHT22;2825;53.116;9.392;2022-08-19T15:06:01;28.50;99.90
5607;DHT22;2825;53.116;9.392;2022-08-19T15:08:29;28.40;99.90
5607;DHT22;2825;53.116;9.392;2022-08-19T15:10:57;28.30;99.90
5607;DHT22;2825;53.116;9.392;2022-08-19T15:13:23;28.20;99.90
5607;DHT22;2825;53.116;9.392;2022-08-19T15:15:50;28.10;99.90
5607;DHT22;2825;53.116;9.392;2022-08-19T15:18:17;28.10;99.90
5607;DHT22;2825;53.116;9.392;2022-08-19T15:20:43;28.00;99.90
5607;DHT22;2825;53.116;9.392;2022-08-19T15:23:09;28.00;99.90
5607;DHT22;2825;53.116;9.392;2022-08-19T15:25:36;28.00;99.90
5607;DHT22;2825;53.116;9.392;2022-08-19T15:28:03;28.00;99.90
5607;DHT22;2825;53.116;9.392;2022-08-19T15:30:29;28.00;99.90
5607;DHT22;2825;53.116;9.392;2022-08-19T15:32:56;28.00;99.90
5607;DHT22;2825;53.116;9.392;2022-08-19T15:35:23;28.00;99.90
5607;DHT22;2825;53.116;9.392;2022-08-19T15:37:50;27.80;99.90
5607;DHT22;2825;53.116;9.392;2022-08-19T15:40:18;27.80;99.90
5607;DHT22;2825;53.116;9.392;2022-08-19T15:42:44;27.70;99.90
5607;DHT22;2825;53.116;9.392;2022-08-19T15:45:12;27.60;99.90
5607;DHT22;2825;53.116;9.392;2022-08-19T15:47:38;27.50;99.90
5607;DHT22;2825;53.116;9.392;2022-08-19T15:50:17;27.40;99.90
5607;DHT22;2825;53.116;9.392;2022-08-19T15:52:53;27.40;99.90
5607;DHT22;2825;53.116;9.392;2022-08-19T15:55:23;27.30;99.90
5607;DHT22;2825;53.116;9.392;2022-08-19T15:57:49;27.30;99.90
5607;DHT22;2825;53.116;9.392;2022-08-19T16:00:33;27.30;99.90
5607;DHT22;2825;53.116;9.392;2022-08-19T16:03:17;27.30;99.90
5607;DHT22;2825;53.116;9.392;2022-08-19T16:06:01;27.40;99.90
5607;DHT22;2825;53.116;9.392;2022-08-19T16:08:45;27.40;99.90
5607;DHT22;2825;53.116;9.392;2022-08-19T16:11:17;27.30;99.90
5607;DHT22;2825;53.116;9.392;2022-08-19T16:13:50;27.20;99.90
5607;DHT22;2825;53.116;9.392;2022-08-19T16:16:18;27.10;99.90
5607;DHT22;2825;53.116;9.392;2022-08-19T16:18:43;27.00;99.90
5607;DHT22;2825;53.116;9.392;2022-08-19T16:21:13;27.00;99.90
5607;DHT22;2825;53.116;9.392;2022-08-19T16:23:42;26.90;99.80